sensor_id;sensor_type;location;lat;lon;timestamp;P1;durP1;ratioP1;P2;durP2;ratioP2
61150;SDS011;47029;50.994;2.876;2022-10-31T00:02:16;9.95;;;4.47;;
61150;SDS011;47029;50.994;2.876;2022-10-31T00:04:42;12.37;;;4.85;;
61150;SDS011;47029;50.994;2.876;2022-10-31T00:07:08;14.13;;;4.93;;
61150;SDS011;47029;50.994;2.876;2022-10-31T00:09:35;10.43;;;4.72;;
61150;SDS011;47029;50.994;2.876;2022-10-31T00:12:00;11.55;;;4.90;;
61150;SDS011;47029;50.994;2.876;2022-10-31T00:14:26;10.15;;;4.78;;
61150;SDS011;47029;50.994;2.876;2022-10-31T00:16:53;10.23;;;4.65;;
61150;SDS011;47029;50.994;2.876;2022-10-31T00:19:19;10.68;;;4.95;;
61150;SDS011;47029;50.994;2.876;2022-10-31T00:21:44;12.05;;;4.95;;
61150;SDS011;47029;50.994;2.876;2022-10-31T00:24:10;11.50;;;5.12;;
61150;SDS011;47029;50.994;2.876;2022-10-31T00:26:36;10.32;;;4.80;;
61150;SDS011;47029;50.994;2.876;2022-10-31T00:29:02;11.40;;;5.32;;
61150;SDS011;47029;50.994;2.876;2022-10-31T00:31:28;10.63;;;5.03;;
61150;SDS011;47029;50.994;2.876;2022-10-31T00:33:54;10.25;;;5.00;;
61150;SDS011;47029;50.994;2.876;2022-10-31T00:36:20;13.35;;;5.25;;
61150;SDS011;47029;50.994;2.876;2022-10-31T00:38:46;11.93;;;5.05;;
61150;SDS011;47029;50.994;2.876;2022-10-31T00:41:14;10.63;;;5.00;;
61150;SDS011;47029;50.994;2.876;2022-10-31T00:43:42;11.50;;;4.80;;
61150;SDS011;47029;50.994;2.876;2022-10-31T00:46:08;11.27;;;5.47;;
61150;SDS011;47029;50.994;2.876;2022-10-31T00:48:34;12.30;;;5.55;;
61150;SDS011;47029;50.994;2.876;2022-10-31T00:51:00;12.90;;;5.43;;
61150;SDS011;47029;50.994;2.876;2022-10-31T00:53:26;12.40;;;5.32;;
61150;SDS011;47029;50.994;2.876;2022-10-31T00:55:52;13.13;;;5.25;;
61150;SDS011;47029;50.994;2.876;2022-10-31T00:58:18;11.98;;;5.45;;
61150;SDS011;47029;50.994;2.876;2022-10-31T01:00:46;11.80;;;5.15;;
61150;SDS011;47029;50.994;2.876;2022-10-31T01:03:22;14.10;;;5.18;;
61150;SDS011;47029;50.994;2.876;2022-10-31T01:06:05;10.30;;;5.05;;
61150;SDS011;47029;50.994;2.876;2022-10-31T01:08:33;11.35;;;5.30;;
61150;SDS011;47029;50.994;2.876;2022-10-31T01:11:05;11.57;;;5.12;;
61150;SDS011;47029;50.994;2.876;2022-10-31T01:13:36;11.40;;;5.00;;
61150;SDS011;47029;50.994;2.876;2022-10-31T01:16:03;15.85;;;5.37;;
61150;SDS011;47029;50.994;2.876;2022-10-31T01:18:30;11.48;;;4.80;;
61150;SDS011;47029;50.994;2.876;2022-10-31T01:21:03;10.38;;;4.93;;
61150;SDS011;47029;50.994;2.876;2022-10-31T01:23:31;12.03;;;4.87;;
61150;SDS011;47029;50.994;2.876;2022-10-31T01:28:35;10.45;;;5.00;;
61150;SDS011;47029;50.994;2.876;2022-10-31T01:31:04;12.57;;;5.40;;
61150;SDS011;47029;50.994;2.876;2022-10-31T01:33:31;11.12;;;5.18;;
61150;SDS011;47029;50.994;2.876;2022-10-31T01:35:57;12.32;;;5.15;;
61150;SDS011;47029;50.994;2.876;2022-10-31T01:38:24;11.65;;;5.37;;
61150;SDS011;47029;50.994;2.876;2022-10-31T01:40:49;11.60;;;5.40;;
61150;SDS011;47029;50.994;2.876;2022-10-31T01:43:15;11.93;;;5.10;;
61150;SDS011;47029;50.994;2.876;2022-10-31T01:45:42;11.48;;;5.32;;
61150;SDS011;47029;50.994;2.876;2022-10-31T01:48:12;10.65;;;4.87;;
61150;SDS011;47029;50.994;2.876;2022-10-31T01:50:41;12.65;;;4.97;;
61150;SDS011;47029;50.994;2.876;2022-10-31T01:53:10;14.20;;;5.57;;
61150;SDS011;47029;50.994;2.876;2022-10-31T01:55:41;12.07;;;5.43;;
61150;SDS011;47029;50.994;2.876;2022-10-31T01:58:13;11.55;;;5.10;;
61150;SDS011;47029;50.994;2.876;2022-10-31T02:03:12;11.75;;;4.90;;
61150;SDS011;47029;50.994;2.876;2022-10-31T02:05:39;11.65;;;5.10;;
61150;SDS011;47029;50.994;2.876;2022-10-31T02:08:20;11.75;;;5.35;;
61150;SDS011;47029;50.994;2.876;2022-10-31T02:10:50;11.63;;;5.22;;
61150;SDS011;47029;50.994;2.876;2022-10-31T02:13:17;9.38;;;4.65;;
61150;SDS011;47029;50.994;2.876;2022-10-31T02:15:46;11.68;;;5.03;;
61150;SDS011;47029;50.994;2.876;2022-10-31T02:18:14;11.05;;;4.90;;
61150;SDS011;47029;50.994;2.876;2022-10-31T02:20:43;12.02;;;4.85;;
61150;SDS011;47029;50.994;2.876;2022-10-31T02:26:13;10.85;;;5.28;;
61150;SDS011;47029;50.994;2.876;2022-10-31T02:29:08;11.73;;;5.68;;
61150;SDS011;47029;50.994;2.876;2022-10-31T02:31:43;13.30;;;5.45;;
61150;SDS011;47029;50.994;2.876;2022-10-31T02:34:40;13.52;;;5.45;;
61150;SDS011;47029;50.994;2.876;2022-10-31T02:46:38;12.95;;;5.00;;
61150;SDS011;47029;50.994;2.876;2022-10-31T02:49:01;13.05;;;5.10;;
61150;SDS011;47029;50.994;2.876;2022-10-31T02:51:34;10.88;;;5.10;;
61150;SDS011;47029;50.994;2.876;2022-10-31T02:54:01;10.02;;;4.70;;
61150;SDS011;47029;50.994;2.876;2022-10-31T02:56:26;10.77;;;4.80;;
61150;SDS011;47029;50.994;2.876;2022-10-31T02:58:57;10.63;;;4.45;;
61150;SDS011;47029;50.994;2.876;2022-10-31T03:04:11;9.75;;;4.75;;
61150;SDS011;47029;50.994;2.876;2022-10-31T03:07:03;12.07;;;5.22;;
61150;SDS011;47029;50.994;2.876;2022-10-31T03:15:23;9.18;;;4.40;;
61150;SDS011;47029;50.994;2.876;2022-10-31T03:17:55;10.43;;;4.80;;
61150;SDS011;47029;50.994;2.876;2022-10-31T03:20:32;10.73;;;4.60;;
61150;SDS011;47029;50.994;2.876;2022-10-31T03:23:01;11.10;;;5.12;;
61150;SDS011;47029;50.994;2.876;2022-10-31T03:25:29;10.88;;;5.05;;
61150;SDS011;47029;50.994;2.876;2022-10-31T03:27:57;12.55;;;5.30;;
61150;SDS011;47029;50.994;2.876;2022-10-31T03:30:26;10.82;;;5.05;;
61150;SDS011;47029;50.994;2.876;2022-10-31T03:32:53;12.45;;;5.57;;
61150;SDS011;47029;50.994;2.876;2022-10-31T03:35:23;11.93;;;5.47;;
61150;SDS011;47029;50.994;2.876;2022-10-31T03:37:53;11.93;;;5.60;;
61150;SDS011;47029;50.994;2.876;2022-10-31T03:40:20;12.63;;;5.78;;
61150;SDS011;47029;50.994;2.876;2022-10-31T03:42:51;13.35;;;6.15;;
61150;SDS011;47029;50.994;2.876;2022-10-31T03:45:24;12.93;;;6.32;;
61150;SDS011;47029;50.994;2.876;2022-10-31T03:47:53;19.90;;;6.60;;
61150;SDS011;47029;50.994;2.876;2022-10-31T03:50:20;12.35;;;6.40;;
61150;SDS011;47029;50.994;2.876;2022-10-31T03:52:50;14.05;;;7.07;;
61150;SDS011;47029;50.994;2.876;2022-10-31T03:55:19;14.55;;;7.07;;
61150;SDS011;47029;50.994;2.876;2022-10-31T03:57:57;14.47;;;7.33;;
61150;SDS011;47029;50.994;2.876;2022-10-31T04:00:27;15.93;;;6.72;;
61150;SDS011;47029;50.994;2.876;2022-10-31T04:02:58;12.90;;;6.40;;
61150;SDS011;47029;50.994;2.876;2022-10-31T04:05:35;12.57;;;6.50;;
61150;SDS011;47029;50.994;2.876;2022-10-31T04:08:04;14.77;;;6.62;;
61150;SDS011;47029;50.994;2.876;2022-10-31T04:10:34;14.90;;;6.90;;
61150;SDS011;47029;50.994;2.876;2022-10-31T04:13:06;17.73;;;7.00;;
61150;SDS011;47029;50.994;2.876;2022-10-31T04:15:37;13.97;;;6.90;;
61150;SDS011;47029;50.994;2.876;2022-10-31T04:18:05;14.25;;;6.87;;
61150;SDS011;47029;50.994;2.876;2022-10-31T04:20:34;14.87;;;6.82;;
61150;SDS011;47029;50.994;2.876;2022-10-31T04:23:01;15.23;;;6.97;;
61150;SDS011;47029;50.994;2.876;2022-10-31T04:25:27;13.48;;;6.70;;
61150;SDS011;47029;50.994;2.876;2022-10-31T04:27:53;15.25;;;6.70;;
61150;SDS011;47029;50.994;2.876;2022-10-31T04:30:19;16.70;;;7.30;;
61150;SDS011;47029;50.994;2.876;2022-10-31T04:32:46;15.20;;;7.03;;
61150;SDS011;47029;50.994;2.876;2022-10-31T04:35:12;14.55;;;7.55;;
61150;SDS011;47029;50.994;2.876;2022-10-31T04:37:38;17.73;;;7.32;;
61150;SDS011;47029;50.994;2.876;2022-10-31T04:40:04;13.68;;;6.87;;
61150;SDS011;47029;50.994;2.876;2022-10-31T04:42:31;13.45;;;6.97;;
61150;SDS011;47029;50.994;2.876;2022-10-31T04:44:57;14.50;;;6.10;;
61150;SDS011;47029;50.994;2.876;2022-10-31T04:47:23;15.90;;;7.00;;
61150;SDS011;47029;50.994;2.876;2022-10-31T04:49:49;16.98;;;7.00;;
61150;SDS011;47029;50.994;2.876;2022-10-31T04:52:15;14.38;;;7.07;;
61150;SDS011;47029;50.994;2.876;2022-10-31T04:54:43;16.05;;;6.75;;
61150;SDS011;47029;50.994;2.876;2022-10-31T04:57:09;14.80;;;7.07;;
61150;SDS011;47029;50.994;2.876;2022-10-31T04:59:35;14.10;;;7.18;;
61150;SDS011;47029;50.994;2.876;2022-10-31T05:02:01;15.57;;;7.45;;
61150;SDS011;47029;50.994;2.876;2022-10-31T05:04:26;13.85;;;6.93;;
61150;SDS011;47029;50.994;2.876;2022-10-31T05:06:53;14.05;;;6.87;;
61150;SDS011;47029;50.994;2.876;2022-10-31T05:09:18;16.10;;;7.80;;
61150;SDS011;47029;50.994;2.876;2022-10-31T05:11:44;14.40;;;7.35;;
61150;SDS011;47029;50.994;2.876;2022-10-31T05:14:10;15.52;;;7.85;;
61150;SDS011;47029;50.994;2.876;2022-10-31T05:16:36;13.93;;;7.07;;
61150;SDS011;47029;50.994;2.876;2022-10-31T05:19:02;11.50;;;5.90;;
61150;SDS011;47029;50.994;2.876;2022-10-31T05:21:28;18.12;;;6.57;;
61150;SDS011;47029;50.994;2.876;2022-10-31T05:23:54;14.30;;;6.40;;
61150;SDS011;47029;50.994;2.876;2022-10-31T05:26:20;16.48;;;6.62;;
61150;SDS011;47029;50.994;2.876;2022-10-31T05:28:46;14.82;;;6.70;;
61150;SDS011;47029;50.994;2.876;2022-10-31T05:31:12;15.55;;;6.53;;
61150;SDS011;47029;50.994;2.876;2022-10-31T05:33:38;15.77;;;6.78;;
61150;SDS011;47029;50.994;2.876;2022-10-31T05:36:07;14.70;;;6.60;;
61150;SDS011;47029;50.994;2.876;2022-10-31T05:38:33;14.27;;;6.25;;
61150;SDS011;47029;50.994;2.876;2022-10-31T05:40:59;15.98;;;6.47;;
61150;SDS011;47029;50.994;2.876;2022-10-31T05:43:26;14.20;;;6.80;;
61150;SDS011;47029;50.994;2.876;2022-10-31T05:45:53;13.55;;;6.60;;
61150;SDS011;47029;50.994;2.876;2022-10-31T05:48:19;14.93;;;6.72;;
61150;SDS011;47029;50.994;2.876;2022-10-31T05:50:46;13.10;;;6.10;;
61150;SDS011;47029;50.994;2.876;2022-10-31T05:53:13;16.05;;;6.45;;
61150;SDS011;47029;50.994;2.876;2022-10-31T05:55:41;15.15;;;6.03;;
61150;SDS011;47029;50.994;2.876;2022-10-31T05:58:07;11.70;;;6.03;;
61150;SDS011;47029;50.994;2.876;2022-10-31T06:00:34;13.18;;;6.15;;
61150;SDS011;47029;50.994;2.876;2022-10-31T06:03:00;12.68;;;6.40;;
61150;SDS011;47029;50.994;2.876;2022-10-31T06:05:28;14.45;;;6.78;;
61150;SDS011;47029;50.994;2.876;2022-10-31T06:07:55;14.20;;;6.50;;
61150;SDS011;47029;50.994;2.876;2022-10-31T06:10:21;15.88;;;7.10;;
61150;SDS011;47029;50.994;2.876;2022-10-31T06:12:47;15.52;;;6.75;;
61150;SDS011;47029;50.994;2.876;2022-10-31T06:15:13;14.05;;;6.55;;
61150;SDS011;47029;50.994;2.876;2022-10-31T06:17:39;14.82;;;6.97;;
61150;SDS011;47029;50.994;2.876;2022-10-31T06:20:06;14.45;;;5.97;;
61150;SDS011;47029;50.994;2.876;2022-10-31T06:22:34;14.30;;;6.72;;
61150;SDS011;47029;50.994;2.876;2022-10-31T06:25:00;12.95;;;5.78;;
61150;SDS011;47029;50.994;2.876;2022-10-31T06:27:26;14.25;;;6.68;;
61150;SDS011;47029;50.994;2.876;2022-10-31T06:29:53;15.45;;;7.18;;
61150;SDS011;47029;50.994;2.876;2022-10-31T06:32:19;15.13;;;7.10;;
61150;SDS011;47029;50.994;2.876;2022-10-31T06:34:45;14.95;;;7.15;;
61150;SDS011;47029;50.994;2.876;2022-10-31T06:37:14;15.02;;;7.68;;
61150;SDS011;47029;50.994;2.876;2022-10-31T06:39:43;15.65;;;7.00;;
61150;SDS011;47029;50.994;2.876;2022-10-31T06:42:08;14.40;;;6.78;;
61150;SDS011;47029;50.994;2.876;2022-10-31T06:44:34;18.73;;;7.18;;
61150;SDS011;47029;50.994;2.876;2022-10-31T06:47:00;16.25;;;7.18;;
61150;SDS011;47029;50.994;2.876;2022-10-31T06:49:26;14.35;;;6.70;;
61150;SDS011;47029;50.994;2.876;2022-10-31T06:51:51;15.70;;;7.22;;
61150;SDS011;47029;50.994;2.876;2022-10-31T06:54:17;14.40;;;6.90;;
61150;SDS011;47029;50.994;2.876;2022-10-31T06:56:46;16.12;;;7.15;;
61150;SDS011;47029;50.994;2.876;2022-10-31T06:59:12;14.07;;;6.35;;
61150;SDS011;47029;50.994;2.876;2022-10-31T07:01:38;14.15;;;6.43;;
61150;SDS011;47029;50.994;2.876;2022-10-31T07:04:04;15.77;;;7.60;;
61150;SDS011;47029;50.994;2.876;2022-10-31T07:06:30;18.85;;;7.65;;
61150;SDS011;47029;50.994;2.876;2022-10-31T07:08:55;18.90;;;7.68;;
61150;SDS011;47029;50.994;2.876;2022-10-31T07:11:21;16.85;;;8.02;;
61150;SDS011;47029;50.994;2.876;2022-10-31T07:13:47;17.20;;;8.57;;
61150;SDS011;47029;50.994;2.876;2022-10-31T07:16:13;22.62;;;9.25;;
61150;SDS011;47029;50.994;2.876;2022-10-31T07:18:39;20.85;;;8.63;;
61150;SDS011;47029;50.994;2.876;2022-10-31T07:21:06;18.23;;;8.35;;
61150;SDS011;47029;50.994;2.876;2022-10-31T07:23:32;19.95;;;8.70;;
61150;SDS011;47029;50.994;2.876;2022-10-31T07:25:58;19.73;;;8.45;;
61150;SDS011;47029;50.994;2.876;2022-10-31T07:28:25;15.90;;;8.10;;
61150;SDS011;47029;50.994;2.876;2022-10-31T07:30:53;16.55;;;8.00;;
61150;SDS011;47029;50.994;2.876;2022-10-31T07:33:20;16.05;;;8.07;;
61150;SDS011;47029;50.994;2.876;2022-10-31T07:35:46;17.25;;;8.38;;
61150;SDS011;47029;50.994;2.876;2022-10-31T07:38:13;17.65;;;8.70;;
61150;SDS011;47029;50.994;2.876;2022-10-31T07:40:40;17.60;;;8.45;;
61150;SDS011;47029;50.994;2.876;2022-10-31T07:43:08;19.27;;;8.82;;
61150;SDS011;47029;50.994;2.876;2022-10-31T07:45:37;18.05;;;9.07;;
61150;SDS011;47029;50.994;2.876;2022-10-31T07:48:03;20.33;;;9.07;;
61150;SDS011;47029;50.994;2.876;2022-10-31T07:50:30;17.30;;;8.90;;
61150;SDS011;47029;50.994;2.876;2022-10-31T07:53:05;20.52;;;8.52;;
61150;SDS011;47029;50.994;2.876;2022-10-31T07:55:35;21.30;;;9.70;;
61150;SDS011;47029;50.994;2.876;2022-10-31T07:58:03;18.77;;;9.50;;
61150;SDS011;47029;50.994;2.876;2022-10-31T08:00:30;20.20;;;8.77;;
61150;SDS011;47029;50.994;2.876;2022-10-31T08:03:01;18.85;;;8.63;;
61150;SDS011;47029;50.994;2.876;2022-10-31T08:05:29;20.00;;;9.70;;
61150;SDS011;47029;50.994;2.876;2022-10-31T08:07:57;18.33;;;8.90;;
61150;SDS011;47029;50.994;2.876;2022-10-31T08:10:23;18.20;;;8.77;;
61150;SDS011;47029;50.994;2.876;2022-10-31T08:12:56;17.95;;;8.43;;
61150;SDS011;47029;50.994;2.876;2022-10-31T08:15:26;16.85;;;8.40;;
61150;SDS011;47029;50.994;2.876;2022-10-31T08:17:53;19.30;;;8.73;;
61150;SDS011;47029;50.994;2.876;2022-10-31T08:20:19;21.20;;;8.25;;
61150;SDS011;47029;50.994;2.876;2022-10-31T08:22:52;17.30;;;8.27;;
61150;SDS011;47029;50.994;2.876;2022-10-31T08:25:23;19.35;;;8.70;;
61150;SDS011;47029;50.994;2.876;2022-10-31T08:27:54;17.50;;;8.52;;
61150;SDS011;47029;50.994;2.876;2022-10-31T08:30:21;19.17;;;8.13;;
61150;SDS011;47029;50.994;2.876;2022-10-31T08:33:06;17.85;;;7.95;;
61150;SDS011;47029;50.994;2.876;2022-10-31T08:35:35;18.75;;;8.55;;
61150;SDS011;47029;50.994;2.876;2022-10-31T08:38:04;18.25;;;7.97;;
61150;SDS011;47029;50.994;2.876;2022-10-31T08:40:31;17.67;;;8.20;;
61150;SDS011;47029;50.994;2.876;2022-10-31T08:42:59;17.80;;;8.63;;
61150;SDS011;47029;50.994;2.876;2022-10-31T08:45:29;16.58;;;8.48;;
61150;SDS011;47029;50.994;2.876;2022-10-31T08:47:59;20.10;;;8.93;;
61150;SDS011;47029;50.994;2.876;2022-10-31T08:50:27;19.50;;;8.68;;
61150;SDS011;47029;50.994;2.876;2022-10-31T08:52:59;19.50;;;8.85;;
61150;SDS011;47029;50.994;2.876;2022-10-31T08:55:29;19.00;;;8.85;;
61150;SDS011;47029;50.994;2.876;2022-10-31T08:57:55;17.85;;;8.77;;
61150;SDS011;47029;50.994;2.876;2022-10-31T09:00:22;15.98;;;8.77;;
61150;SDS011;47029;50.994;2.876;2022-10-31T09:02:54;20.80;;;9.75;;
61150;SDS011;47029;50.994;2.876;2022-10-31T09:05:20;19.20;;;9.05;;
61150;SDS011;47029;50.994;2.876;2022-10-31T09:07:46;20.70;;;9.27;;
61150;SDS011;47029;50.994;2.876;2022-10-31T09:10:12;18.55;;;9.73;;
61150;SDS011;47029;50.994;2.876;2022-10-31T09:12:38;20.92;;;9.68;;
61150;SDS011;47029;50.994;2.876;2022-10-31T09:15:04;23.30;;;10.25;;
61150;SDS011;47029;50.994;2.876;2022-10-31T09:17:31;20.83;;;10.82;;
61150;SDS011;47029;50.994;2.876;2022-10-31T09:19:57;21.87;;;10.38;;
61150;SDS011;47029;50.994;2.876;2022-10-31T09:22:22;21.40;;;10.68;;
61150;SDS011;47029;50.994;2.876;2022-10-31T09:24:48;22.80;;;10.73;;
61150;SDS011;47029;50.994;2.876;2022-10-31T09:27:14;22.95;;;11.27;;
61150;SDS011;47029;50.994;2.876;2022-10-31T09:29:39;18.75;;;10.35;;
61150;SDS011;47029;50.994;2.876;2022-10-31T09:32:05;23.50;;;11.38;;
61150;SDS011;47029;50.994;2.876;2022-10-31T09:34:31;22.08;;;10.93;;
61150;SDS011;47029;50.994;2.876;2022-10-31T09:36:56;19.73;;;10.52;;
61150;SDS011;47029;50.994;2.876;2022-10-31T09:39:22;20.73;;;10.55;;
61150;SDS011;47029;50.994;2.876;2022-10-31T09:42:01;24.45;;;11.07;;
61150;SDS011;47029;50.994;2.876;2022-10-31T09:50:28;21.92;;;9.93;;
61150;SDS011;47029;50.994;2.876;2022-10-31T09:52:36;19.45;;;10.27;;
61150;SDS011;47029;50.994;2.876;2022-10-31T09:55:27;22.08;;;9.85;;
61150;SDS011;47029;50.994;2.876;2022-10-31T09:57:59;21.62;;;9.70;;
61150;SDS011;47029;50.994;2.876;2022-10-31T10:00:26;20.48;;;9.43;;
61150;SDS011;47029;50.994;2.876;2022-10-31T10:02:54;19.98;;;9.35;;
61150;SDS011;47029;50.994;2.876;2022-10-31T10:05:40;18.45;;;8.40;;
61150;SDS011;47029;50.994;2.876;2022-10-31T10:08:25;18.23;;;8.90;;
61150;SDS011;47029;50.994;2.876;2022-10-31T10:10:55;21.00;;;8.82;;
61150;SDS011;47029;50.994;2.876;2022-10-31T10:16:03;19.20;;;8.30;;
61150;SDS011;47029;50.994;2.876;2022-10-31T10:21:58;16.33;;;8.13;;
61150;SDS011;47029;50.994;2.876;2022-10-31T10:27:23;19.87;;;8.30;;
61150;SDS011;47029;50.994;2.876;2022-10-31T10:30:04;20.25;;;8.68;;
61150;SDS011;47029;50.994;2.876;2022-10-31T10:32:44;19.98;;;8.70;;
61150;SDS011;47029;50.994;2.876;2022-10-31T10:37:47;16.48;;;8.50;;
61150;SDS011;47029;50.994;2.876;2022-10-31T10:40:18;17.98;;;8.07;;
61150;SDS011;47029;50.994;2.876;2022-10-31T10:42:53;22.13;;;9.23;;
61150;SDS011;47029;50.994;2.876;2022-10-31T10:45:39;19.55;;;8.75;;
61150;SDS011;47029;50.994;2.876;2022-10-31T10:51:01;18.43;;;9.20;;
61150;SDS011;47029;50.994;2.876;2022-10-31T10:53:38;19.95;;;9.25;;
61150;SDS011;47029;50.994;2.876;2022-10-31T10:59:17;18.08;;;8.63;;
61150;SDS011;47029;50.994;2.876;2022-10-31T11:01:46;18.37;;;9.68;;
61150;SDS011;47029;50.994;2.876;2022-10-31T11:04:22;17.52;;;8.63;;
61150;SDS011;47029;50.994;2.876;2022-10-31T11:07:03;19.15;;;9.15;;
61150;SDS011;47029;50.994;2.876;2022-10-31T11:09:31;21.77;;;9.15;;
61150;SDS011;47029;50.994;2.876;2022-10-31T11:11:57;19.45;;;9.90;;
61150;SDS011;47029;50.994;2.876;2022-10-31T11:14:24;21.35;;;9.75;;
61150;SDS011;47029;50.994;2.876;2022-10-31T11:16:55;19.70;;;9.90;;
61150;SDS011;47029;50.994;2.876;2022-10-31T11:19:35;23.35;;;9.35;;
61150;SDS011;47029;50.994;2.876;2022-10-31T11:22:08;16.85;;;8.88;;
61150;SDS011;47029;50.994;2.876;2022-10-31T11:24:41;17.48;;;8.65;;
61150;SDS011;47029;50.994;2.876;2022-10-31T11:27:13;17.05;;;9.32;;
61150;SDS011;47029;50.994;2.876;2022-10-31T11:29:41;20.15;;;9.85;;
61150;SDS011;47029;50.994;2.876;2022-10-31T11:32:46;18.23;;;9.02;;
61150;SDS011;47029;50.994;2.876;2022-10-31T11:35:16;15.75;;;8.27;;
61150;SDS011;47029;50.994;2.876;2022-10-31T11:37:44;18.30;;;9.18;;
61150;SDS011;47029;50.994;2.876;2022-10-31T11:40:19;17.37;;;8.13;;
61150;SDS011;47029;50.994;2.876;2022-10-31T11:42:47;17.00;;;8.30;;
61150;SDS011;47029;50.994;2.876;2022-10-31T11:45:16;17.40;;;7.90;;
61150;SDS011;47029;50.994;2.876;2022-10-31T11:47:49;16.50;;;8.25;;
61150;SDS011;47029;50.994;2.876;2022-10-31T11:50:20;16.27;;;7.80;;
61150;SDS011;47029;50.994;2.876;2022-10-31T11:52:47;16.98;;;7.93;;
61150;SDS011;47029;50.994;2.876;2022-10-31T11:55:15;16.30;;;7.75;;
61150;SDS011;47029;50.994;2.876;2022-10-31T11:57:47;16.30;;;8.02;;
61150;SDS011;47029;50.994;2.876;2022-10-31T12:03:04;14.85;;;8.05;;
61150;SDS011;47029;50.994;2.876;2022-10-31T12:05:47;15.80;;;7.25;;
61150;SDS011;47029;50.994;2.876;2022-10-31T12:08:19;15.82;;;7.30;;
61150;SDS011;47029;50.994;2.876;2022-10-31T12:11:09;15.48;;;7.35;;
61150;SDS011;47029;50.994;2.876;2022-10-31T12:44:05;15.68;;;7.22;;
61150;SDS011;47029;50.994;2.876;2022-10-31T12:49:24;14.10;;;6.72;;
61150;SDS011;47029;50.994;2.876;2022-10-31T12:59:36;15.07;;;6.20;;
61150;SDS011;47029;50.994;2.876;2022-10-31T13:02:20;13.20;;;6.18;;
61150;SDS011;47029;50.994;2.876;2022-10-31T13:05:12;14.52;;;6.05;;
61150;SDS011;47029;50.994;2.876;2022-10-31T13:07:51;14.10;;;6.07;;
61150;SDS011;47029;50.994;2.876;2022-10-31T13:10:42;14.70;;;6.32;;
61150;SDS011;47029;50.994;2.876;2022-10-31T13:13:33;14.43;;;6.43;;
61150;SDS011;47029;50.994;2.876;2022-10-31T13:16:03;12.32;;;5.90;;
61150;SDS011;47029;50.994;2.876;2022-10-31T13:21:30;12.85;;;5.80;;
61150;SDS011;47029;50.994;2.876;2022-10-31T13:24:02;13.30;;;5.87;;
61150;SDS011;47029;50.994;2.876;2022-10-31T13:26:40;17.80;;;5.90;;
61150;SDS011;47029;50.994;2.876;2022-10-31T13:29:29;16.00;;;6.50;;
61150;SDS011;47029;50.994;2.876;2022-10-31T13:31:59;14.65;;;6.75;;
61150;SDS011;47029;50.994;2.876;2022-10-31T13:37:05;36.47;;;17.50;;
61150;SDS011;47029;50.994;2.876;2022-10-31T13:43:06;17.80;;;7.68;;
61150;SDS011;47029;50.994;2.876;2022-10-31T13:45:53;25.08;;;10.48;;
61150;SDS011;47029;50.994;2.876;2022-10-31T13:48:32;35.33;;;15.20;;
61150;SDS011;47029;50.994;2.876;2022-10-31T13:51:04;19.25;;;9.27;;
61150;SDS011;47029;50.994;2.876;2022-10-31T13:58:56;17.87;;;9.52;;
61150;SDS011;47029;50.994;2.876;2022-10-31T14:01:26;20.75;;;9.30;;
61150;SDS011;47029;50.994;2.876;2022-10-31T14:04:02;20.48;;;9.38;;
61150;SDS011;47029;50.994;2.876;2022-10-31T14:07:07;21.35;;;10.80;;
61150;SDS011;47029;50.994;2.876;2022-10-31T14:09:40;20.90;;;9.85;;
61150;SDS011;47029;50.994;2.876;2022-10-31T14:12:08;20.05;;;9.18;;
61150;SDS011;47029;50.994;2.876;2022-10-31T14:14:49;19.75;;;9.40;;
61150;SDS011;47029;50.994;2.876;2022-10-31T14:17:24;23.58;;;10.57;;
61150;SDS011;47029;50.994;2.876;2022-10-31T14:22:36;19.10;;;9.35;;
61150;SDS011;47029;50.994;2.876;2022-10-31T14:27:51;19.83;;;9.95;;
61150;SDS011;47029;50.994;2.876;2022-10-31T14:30:21;20.15;;;9.75;;
61150;SDS011;47029;50.994;2.876;2022-10-31T14:33:16;21.05;;;10.25;;
61150;SDS011;47029;50.994;2.876;2022-10-31T14:35:56;21.65;;;10.40;;
61150;SDS011;47029;50.994;2.876;2022-10-31T14:38:50;20.50;;;9.85;;
61150;SDS011;47029;50.994;2.876;2022-10-31T14:41:36;20.15;;;9.18;;
61150;SDS011;47029;50.994;2.876;2022-10-31T14:44:21;19.23;;;9.70;;
61150;SDS011;47029;50.994;2.876;2022-10-31T14:50:07;19.75;;;9.60;;
61150;SDS011;47029;50.994;2.876;2022-10-31T14:52:55;21.37;;;9.85;;
61150;SDS011;47029;50.994;2.876;2022-10-31T14:55:25;22.80;;;10.15;;
61150;SDS011;47029;50.994;2.876;2022-10-31T14:57:54;21.58;;;10.23;;
61150;SDS011;47029;50.994;2.876;2022-10-31T15:00:23;20.80;;;9.77;;
61150;SDS011;47029;50.994;2.876;2022-10-31T15:02:59;19.77;;;10.52;;
61150;SDS011;47029;50.994;2.876;2022-10-31T15:05:41;20.88;;;10.57;;
61150;SDS011;47029;50.994;2.876;2022-10-31T15:10:57;21.75;;;9.45;;
61150;SDS011;47029;50.994;2.876;2022-10-31T15:13:24;19.77;;;9.75;;
61150;SDS011;47029;50.994;2.876;2022-10-31T15:15:51;19.90;;;9.18;;
61150;SDS011;47029;50.994;2.876;2022-10-31T15:18:21;21.58;;;9.98;;
61150;SDS011;47029;50.994;2.876;2022-10-31T15:20:50;21.37;;;10.55;;
61150;SDS011;47029;50.994;2.876;2022-10-31T15:23:21;19.05;;;9.68;;
61150;SDS011;47029;50.994;2.876;2022-10-31T15:25:57;18.50;;;9.38;;
61150;SDS011;47029;50.994;2.876;2022-10-31T15:28:24;20.75;;;9.73;;
61150;SDS011;47029;50.994;2.876;2022-10-31T15:30:55;21.20;;;9.55;;
61150;SDS011;47029;50.994;2.876;2022-10-31T15:33:23;22.65;;;10.25;;
61150;SDS011;47029;50.994;2.876;2022-10-31T15:36:00;22.65;;;9.90;;
61150;SDS011;47029;50.994;2.876;2022-10-31T15:38:27;23.45;;;9.82;;
61150;SDS011;47029;50.994;2.876;2022-10-31T15:41:05;23.95;;;10.65;;
61150;SDS011;47029;50.994;2.876;2022-10-31T15:43:44;27.30;;;11.15;;
61150;SDS011;47029;50.994;2.876;2022-10-31T15:46:12;20.92;;;10.43;;
61150;SDS011;47029;50.994;2.876;2022-10-31T15:48:39;24.65;;;10.20;;
61150;SDS011;47029;50.994;2.876;2022-10-31T15:51:14;20.52;;;10.40;;
61150;SDS011;47029;50.994;2.876;2022-10-31T15:53:47;21.00;;;10.02;;
61150;SDS011;47029;50.994;2.876;2022-10-31T15:56:19;21.50;;;10.38;;
61150;SDS011;47029;50.994;2.876;2022-10-31T15:58:48;25.73;;;10.75;;
61150;SDS011;47029;50.994;2.876;2022-10-31T16:01:20;23.67;;;11.20;;
61150;SDS011;47029;50.994;2.876;2022-10-31T16:04:34;22.27;;;10.38;;
61150;SDS011;47029;50.994;2.876;2022-10-31T16:07:02;25.00;;;12.00;;
61150;SDS011;47029;50.994;2.876;2022-10-31T16:09:37;24.52;;;11.12;;
61150;SDS011;47029;50.994;2.876;2022-10-31T16:12:13;27.65;;;11.90;;
61150;SDS011;47029;50.994;2.876;2022-10-31T16:14:41;26.02;;;12.23;;
61150;SDS011;47029;50.994;2.876;2022-10-31T16:17:11;23.75;;;10.77;;
61150;SDS011;47029;50.994;2.876;2022-10-31T16:20:16;25.67;;;11.65;;
61150;SDS011;47029;50.994;2.876;2022-10-31T16:22:33;27.42;;;11.95;;
61150;SDS011;47029;50.994;2.876;2022-10-31T16:27:35;24.20;;;11.65;;
61150;SDS011;47029;50.994;2.876;2022-10-31T16:30:26;24.23;;;11.80;;
61150;SDS011;47029;50.994;2.876;2022-10-31T16:32:56;23.52;;;11.38;;
61150;SDS011;47029;50.994;2.876;2022-10-31T16:35:34;30.30;;;11.52;;
61150;SDS011;47029;50.994;2.876;2022-10-31T16:38:01;27.25;;;12.13;;
61150;SDS011;47029;50.994;2.876;2022-10-31T16:40:27;26.45;;;11.52;;
61150;SDS011;47029;50.994;2.876;2022-10-31T16:42:53;26.67;;;12.57;;
61150;SDS011;47029;50.994;2.876;2022-10-31T16:45:26;26.05;;;13.88;;
61150;SDS011;47029;50.994;2.876;2022-10-31T16:47:53;23.83;;;12.63;;
61150;SDS011;47029;50.994;2.876;2022-10-31T16:50:23;26.70;;;13.88;;
61150;SDS011;47029;50.994;2.876;2022-10-31T16:52:51;25.25;;;13.52;;
61150;SDS011;47029;50.994;2.876;2022-10-31T16:55:18;26.45;;;13.77;;